createdAt,value
2017-09-25T00:02:13.064Z,83.69
2017-09-25T00:04:40.535Z,83.70
2017-09-25T00:07:08.024Z,83.61
2017-09-25T00:09:35.487Z,83.53
2017-09-25T00:12:03.287Z,83.51
2017-09-25T00:14:30.757Z,83.41
2017-09-25T00:16:58.214Z,83.40
2017-09-25T00:19:25.690Z,83.35
2017-09-25T00:21:53.148Z,83.29
2017-09-25T00:24:20.623Z,83.25
2017-09-25T00:26:48.091Z,83.21
2017-09-25T00:29:15.887Z,83.25
2017-09-25T00:31:43.356Z,83.19
2017-09-25T00:34:10.898Z,83.02
2017-09-25T00:36:38.361Z,82.88
2017-09-25T00:39:05.829Z,82.76
2017-09-25T00:41:33.682Z,82.63
2017-09-25T00:44:01.160Z,82.57
2017-09-25T00:46:28.656Z,82.45
2017-09-25T00:48:56.129Z,82.31
2017-09-25T00:51:23.601Z,82.24
2017-09-25T00:53:57.910Z,82.33
2017-09-25T00:56:25.386Z,82.47
2017-09-25T00:58:52.870Z,82.47
2017-09-25T01:01:20.332Z,82.35
2017-09-25T01:03:53.783Z,82.41
2017-09-25T01:06:26.131Z,82.47
2017-09-25T01:08:53.934Z,82.56
2017-09-25T01:11:21.850Z,82.64
2017-09-25T01:13:49.373Z,82.58
2017-09-25T01:16:16.850Z,82.56
2017-09-25T01:18:44.310Z,82.47
2017-09-25T01:21:11.838Z,82.39
2017-09-25T01:23:39.323Z,82.31
2017-09-25T01:26:07.073Z,82.21
2017-09-25T01:28:34.539Z,82.19
2017-09-25T01:31:02.004Z,82.28
2017-09-25T01:33:30.372Z,82.29
2017-09-25T01:35:57.830Z,82.26
2017-09-25T01:38:25.324Z,82.24
2017-09-25T01:40:52.803Z,82.25
2017-09-25T01:43:20.284Z,82.23
2017-09-25T01:45:47.752Z,82.18
2017-09-25T01:48:15.250Z,82.26
2017-09-25T01:50:42.711Z,82.36
2017-09-25T01:53:10.517Z,82.15
2017-09-25T01:55:37.992Z,81.93
2017-09-25T01:58:05.450Z,81.98
2017-09-25T02:00:32.987Z,81.98
2017-09-25T02:03:00.454Z,82.10
2017-09-25T02:05:27.927Z,82.19
2017-09-25T02:07:55.875Z,82.33
2017-09-25T02:10:23.355Z,82.60
2017-09-25T02:12:50.969Z,82.78
2017-09-25T02:15:18.768Z,83.15
2017-09-25T02:17:46.245Z,83.28
2017-09-25T02:20:13.768Z,83.29
2017-09-25T02:22:41.538Z,83.36
2017-09-25T02:25:09.063Z,83.49
2017-09-25T02:27:36.552Z,83.65
2017-09-25T02:30:04.048Z,83.73
2017-09-25T02:32:31.514Z,83.85
2017-09-25T02:34:59.343Z,83.93
2017-09-25T02:37:26.892Z,84.07
2017-09-25T02:39:54.353Z,84.06
2017-09-25T02:42:21.828Z,84.05
2017-09-25T02:44:49.299Z,84.34
2017-09-25T02:47:17.127Z,84.45
2017-09-25T02:49:44.579Z,84.38
2017-09-25T02:52:12.155Z,84.26
2017-09-25T02:54:39.638Z,84.11
2017-09-25T02:57:07.099Z,83.96
2017-09-25T02:59:34.851Z,84.01
2017-09-25T03:02:02.319Z,84.17
2017-09-25T03:04:29.785Z,84.28
2017-09-25T03:06:57.279Z,84.46
2017-09-25T03:09:24.747Z,84.60
2017-09-25T03:11:52.315Z,84.87
2017-09-25T03:14:19.800Z,85.08
2017-09-25T03:16:47.644Z,85.18
2017-09-25T03:19:15.099Z,85.18
2017-09-25T03:21:42.563Z,85.17
2017-09-25T03:24:10.032Z,85.21
2017-09-25T03:26:37.499Z,85.28
2017-09-25T03:29:05.351Z,85.18
2017-09-25T03:31:32.828Z,85.08
2017-09-25T03:34:00.295Z,85.18
2017-09-25T03:36:27.814Z,85.31
2017-09-25T03:38:55.368Z,85.47
2017-09-25T03:41:22.855Z,85.54
2017-09-25T03:43:50.387Z,85.61
2017-09-25T03:46:17.866Z,85.48
2017-09-25T03:48:45.325Z,85.29
2017-09-25T03:51:12.800Z,85.50
2017-09-25T03:53:40.271Z,85.53
2017-09-25T03:56:08.084Z,85.47
2017-09-25T03:58:35.620Z,85.56
2017-09-25T04:01:03.092Z,85.66
2017-09-25T04:03:30.551Z,85.74
2017-09-25T04:05:58.008Z,85.76
2017-09-25T04:08:25.776Z,85.86
2017-09-25T04:10:53.252Z,85.99
2017-09-25T04:13:20.719Z,85.98
2017-09-25T04:15:48.193Z,86.06
2017-09-25T04:18:15.659Z,86.08
2017-09-25T04:20:43.468Z,86.17
2017-09-25T04:23:10.933Z,86.21
2017-09-25T04:25:38.399Z,86.25
2017-09-25T04:28:05.902Z,86.17
2017-09-25T04:30:33.364Z,86.14
2017-09-25T04:33:00.862Z,86.16
2017-09-25T04:35:28.326Z,86.16
2017-09-25T04:37:55.792Z,86.19
2017-09-25T04:40:23.291Z,86.44
2017-09-25T04:42:50.767Z,86.34
2017-09-25T04:45:18.228Z,86.48
2017-09-25T04:47:46.015Z,86.63
2017-09-25T04:50:13.568Z,86.94
2017-09-25T04:52:41.036Z,87.08
2017-09-25T04:55:08.530Z,86.99
2017-09-25T04:57:36.003Z,86.82
2017-09-25T05:00:03.817Z,86.65
2017-09-25T05:02:31.302Z,86.38
2017-09-25T05:04:58.770Z,86.35
2017-09-25T05:07:26.260Z,86.12
2017-09-25T05:09:53.723Z,86.21
2017-09-25T05:12:21.237Z,86.60
2017-09-25T05:14:48.766Z,86.80
2017-09-25T05:17:16.244Z,86.82
2017-09-25T05:19:43.736Z,86.73
2017-09-25T05:22:11.208Z,86.57
2017-09-25T05:24:38.688Z,86.58
2017-09-25T05:27:06.561Z,86.74
2017-09-25T05:29:34.019Z,86.85
2017-09-25T05:32:01.479Z,86.87
2017-09-25T05:34:28.953Z,86.81
2017-09-25T05:36:56.412Z,86.69
2017-09-25T05:39:23.895Z,86.54
2017-09-25T05:41:51.407Z,86.50
2017-09-25T05:44:18.878Z,86.48
2017-09-25T05:46:46.331Z,86.48
2017-09-25T05:49:13.814Z,86.41
2017-09-25T05:51:41.286Z,86.47
2017-09-25T05:54:08.775Z,86.46
2017-09-25T05:56:36.259Z,86.38
2017-09-25T05:59:04.107Z,86.36
2017-09-25T06:01:31.561Z,86.38
2017-09-25T06:03:59.095Z,86.56
2017-09-25T06:06:26.592Z,86.72
2017-09-25T06:08:54.494Z,86.98
2017-09-25T06:11:22.464Z,87.05
2017-09-25T06:13:51.718Z,87.11
2017-09-25T06:16:19.200Z,87.13
2017-09-25T06:18:47.902Z,87.20
2017-09-25T06:21:16.053Z,87.13
2017-09-25T06:23:43.527Z,87.02
2017-09-25T06:26:11.021Z,87.03
2017-09-25T06:28:38.759Z,86.91
2017-09-25T06:31:06.235Z,86.72
2017-09-25T06:33:33.745Z,86.84
2017-09-25T06:36:01.229Z,86.62
2017-09-25T06:38:28.791Z,86.80
2017-09-25T06:41:00.356Z,86.92
2017-09-25T06:43:28.292Z,86.72
2017-09-25T06:45:55.796Z,86.62
2017-09-25T06:48:23.286Z,86.41
2017-09-25T06:50:50.871Z,86.09
2017-09-25T06:53:18.379Z,85.88
2017-09-25T06:55:45.879Z,85.83
2017-09-25T06:58:13.357Z,85.79
2017-09-25T07:00:40.843Z,85.86
2017-09-25T07:03:08.323Z,85.85
2017-09-25T07:05:35.821Z,85.92
2017-09-25T07:08:03.318Z,85.95
2017-09-25T07:10:31.134Z,85.91
2017-09-25T07:12:58.620Z,86.01
2017-09-25T07:15:26.115Z,85.97
2017-09-25T07:17:53.610Z,85.93
2017-09-25T07:20:21.076Z,86.01
2017-09-25T07:22:48.918Z,85.93
2017-09-25T07:25:16.400Z,85.73
2017-09-25T07:27:43.846Z,85.73
2017-09-25T07:30:11.350Z,85.55
2017-09-25T07:32:38.817Z,85.50
2017-09-25T07:35:06.334Z,85.49
2017-09-25T07:37:33.905Z,85.24
2017-09-25T07:40:01.664Z,85.22
2017-09-25T07:42:29.121Z,85.05
2017-09-25T07:44:56.607Z,84.87
2017-09-25T07:47:24.102Z,84.65
2017-09-25T07:49:51.558Z,84.59
2017-09-25T07:52:19.091Z,84.49
2017-09-25T07:54:46.582Z,84.29
2017-09-25T07:57:14.354Z,84.71
2017-09-25T07:59:41.827Z,84.66
2017-09-25T08:02:09.309Z,84.55
2017-09-25T08:04:36.800Z,84.58
2017-09-25T08:07:04.277Z,84.36
2017-09-25T08:09:31.751Z,84.34
2017-09-25T08:11:59.219Z,84.49
2017-09-25T08:14:26.715Z,84.23
2017-09-25T08:16:54.189Z,84.24
2017-09-25T08:19:21.660Z,84.15
2017-09-25T08:21:49.127Z,83.84
2017-09-25T08:24:16.610Z,83.24
2017-09-25T08:26:44.215Z,82.81
2017-09-25T08:29:11.795Z,82.77
2017-09-25T08:31:39.264Z,82.77
2017-09-25T08:34:07.135Z,82.78
2017-09-25T08:36:34.602Z,82.65
2017-09-25T08:39:02.089Z,82.50
2017-09-25T08:41:29.580Z,82.26
2017-09-25T08:43:57.074Z,82.04
2017-09-25T08:46:24.675Z,81.96
2017-09-25T08:48:52.158Z,81.24
2017-09-25T08:51:19.667Z,80.59
2017-09-25T08:53:47.128Z,80.88
2017-09-25T08:56:14.603Z,81.14
2017-09-25T08:58:42.075Z,81.39
2017-09-25T09:01:09.581Z,81.20
2017-09-25T09:03:37.069Z,80.81
2017-09-25T09:06:04.548Z,80.68
2017-09-25T09:08:43.955Z,80.46
2017-09-25T09:11:11.792Z,80.03
2017-09-25T09:13:39.271Z,80.10
2017-09-25T09:16:06.754Z,80.51
2017-09-25T09:18:34.227Z,80.40
2017-09-25T09:21:01.729Z,80.05
2017-09-25T09:23:29.215Z,80.00
2017-09-25T09:25:56.716Z,79.87
2017-09-25T09:28:24.281Z,77.70
2017-09-25T09:30:51.833Z,77.27
2017-09-25T09:33:19.596Z,77.42
2017-09-25T09:35:47.056Z,77.67
2017-09-25T09:38:14.533Z,77.88
2017-09-25T09:40:42.050Z,77.95
2017-09-25T09:43:09.536Z,77.66
2017-09-25T09:45:37.102Z,77.86
2017-09-25T09:48:04.577Z,77.47
2017-09-25T09:50:32.627Z,77.45
2017-09-25T09:53:00.102Z,76.96
2017-09-25T09:55:27.631Z,75.76
2017-09-25T09:57:55.711Z,76.07
2017-09-25T10:00:23.187Z,76.02
2017-09-25T10:02:50.668Z,74.57
2017-09-25T10:05:18.143Z,73.67
2017-09-25T10:07:45.677Z,74.13
2017-09-25T10:10:13.165Z,73.45
2017-09-25T10:12:40.966Z,73.84
2017-09-25T10:15:08.441Z,74.19
2017-09-25T10:17:35.921Z,73.29
2017-09-25T10:20:03.487Z,71.78
2017-09-25T10:22:30.972Z,69.92
2017-09-25T10:24:58.466Z,70.79
2017-09-25T10:27:25.956Z,69.76
2017-09-25T10:29:53.427Z,69.89
2017-09-25T10:32:21.257Z,71.94
2017-09-25T10:34:48.726Z,70.25
2017-09-25T10:37:16.283Z,66.45
2017-09-25T10:39:43.808Z,63.59
2017-09-25T10:42:11.397Z,62.57
2017-09-25T10:44:38.874Z,60.01
2017-09-25T10:47:06.357Z,57.20
2017-09-25T10:49:33.831Z,55.28
2017-09-25T10:52:01.357Z,53.35
2017-09-25T10:54:29.099Z,52.56
2017-09-25T10:56:56.604Z,50.57
2017-09-25T10:59:24.136Z,50.39
2017-09-25T11:01:51.626Z,49.14
2017-09-25T11:04:19.074Z,48.23
2017-09-25T11:06:46.581Z,47.55
2017-09-25T11:09:14.112Z,47.21
2017-09-25T11:11:41.604Z,45.39
2017-09-25T11:14:09.100Z,44.76
2017-09-25T11:16:36.852Z,44.02
2017-09-25T11:21:31.129Z,43.32
2017-09-25T11:23:58.625Z,42.17
2017-09-25T11:26:26.201Z,42.63
2017-09-25T11:28:53.700Z,42.39
2017-09-25T11:31:21.176Z,42.85
2017-09-25T11:33:48.656Z,44.06
2017-09-25T11:36:16.180Z,45.00
2017-09-25T11:38:43.990Z,45.01
2017-09-25T11:41:11.517Z,45.00
2017-09-25T11:43:39.056Z,45.31
2017-09-25T11:46:06.567Z,45.13
2017-09-25T11:48:34.078Z,45.05
2017-09-25T11:51:01.601Z,44.38
2017-09-25T11:53:29.113Z,43.84
2017-09-25T11:55:56.855Z,43.02
2017-09-25T11:58:24.325Z,42.69
2017-09-25T12:00:51.853Z,42.18
2017-09-25T12:03:19.440Z,41.11
2017-09-25T12:05:46.981Z,41.02
2017-09-25T12:08:14.460Z,41.34
2017-09-25T12:10:42.040Z,40.68
2017-09-25T12:13:09.514Z,41.45
2017-09-25T12:15:36.994Z,42.81
2017-09-25T12:18:04.823Z,43.08
2017-09-25T12:20:32.308Z,43.19
2017-09-25T12:22:59.782Z,42.33
2017-09-25T12:25:27.355Z,42.96
2017-09-25T12:27:54.817Z,42.31
2017-09-25T12:30:22.363Z,43.32
2017-09-25T12:32:49.841Z,42.94
2017-09-25T12:35:17.608Z,42.62
2017-09-25T12:37:45.110Z,42.03
2017-09-25T12:40:12.641Z,42.37
2017-09-25T12:42:40.136Z,42.41
2017-09-25T12:45:07.652Z,41.62
2017-09-25T12:47:35.159Z,40.09
2017-09-25T12:50:02.656Z,38.59
2017-09-25T12:52:30.140Z,37.60
2017-09-25T12:54:57.606Z,37.95
2017-09-25T12:57:25.087Z,36.99
2017-09-25T12:59:52.590Z,35.70
2017-09-25T13:02:20.066Z,35.08
2017-09-25T13:04:47.549Z,35.14
2017-09-25T13:07:15.009Z,34.33
2017-09-25T13:09:42.799Z,34.71
2017-09-25T13:12:10.267Z,33.81
2017-09-25T13:14:37.730Z,33.15
2017-09-25T13:17:05.222Z,32.45
2017-09-25T13:19:32.679Z,32.63
2017-09-25T13:22:00.553Z,32.86
2017-09-25T13:24:28.044Z,32.99
2017-09-25T13:26:55.536Z,34.33
2017-09-25T13:29:23.028Z,35.61
2017-09-25T13:31:50.496Z,36.49
2017-09-25T13:34:18.299Z,37.17
2017-09-25T13:36:45.802Z,37.70
2017-09-25T13:39:13.286Z,39.11
2017-09-25T13:41:40.826Z,39.67
2017-09-25T13:44:08.358Z,40.22
2017-09-25T13:46:35.860Z,40.56
2017-09-25T13:49:03.344Z,40.83
2017-09-25T13:51:31.172Z,42.22
2017-09-25T13:53:58.627Z,42.29
2017-09-25T13:56:26.105Z,42.60
2017-09-25T14:03:59.058Z,44.08
2017-09-25T14:06:26.568Z,44.17
2017-09-25T14:08:54.054Z,42.95
2017-09-25T14:11:21.566Z,42.85
2017-09-25T14:13:49.078Z,43.35
2017-09-25T14:16:16.578Z,44.18
2017-09-25T14:18:44.419Z,44.36
2017-09-25T14:21:11.872Z,44.66
2017-09-25T14:23:39.354Z,45.40
2017-09-25T14:26:06.876Z,45.77
2017-09-25T14:28:34.373Z,45.83
2017-09-25T14:31:01.848Z,45.99
2017-09-25T14:33:29.303Z,46.41
2017-09-25T14:35:57.131Z,47.04
2017-09-25T14:38:24.590Z,47.79
2017-09-25T14:40:52.083Z,48.26
2017-09-25T14:43:19.595Z,48.42
2017-09-25T14:45:47.083Z,48.83
2017-09-25T14:48:14.746Z,49.35
2017-09-25T14:50:42.245Z,49.70
2017-09-25T14:53:09.745Z,49.59
2017-09-25T14:55:37.216Z,50.29
2017-09-25T14:58:04.715Z,50.90
2017-09-25T15:00:32.237Z,51.19
2017-09-25T15:03:00.075Z,51.27
2017-09-25T15:05:27.536Z,50.97
2017-09-25T15:07:55.010Z,50.55
2017-09-25T15:10:22.514Z,50.18
2017-09-25T15:12:49.988Z,50.37
2017-09-25T15:15:17.449Z,51.13
2017-09-25T15:17:44.899Z,51.36
2017-09-25T15:20:12.383Z,51.80
2017-09-25T15:22:39.867Z,52.06
2017-09-25T15:25:07.342Z,52.27
2017-09-25T15:27:34.804Z,52.68
2017-09-25T15:30:02.275Z,52.88
2017-09-25T15:32:29.748Z,52.67
2017-09-25T15:34:57.217Z,52.80
2017-09-25T15:37:24.737Z,53.52
2017-09-25T15:39:52.223Z,54.06
2017-09-25T15:42:19.716Z,54.36
2017-09-25T15:44:47.223Z,54.66
2017-09-25T15:47:14.970Z,54.54
2017-09-25T15:49:42.431Z,54.71
2017-09-25T15:52:09.909Z,55.38
2017-09-25T15:54:37.396Z,55.94
2017-09-25T15:57:04.857Z,56.21
2017-09-25T15:59:32.338Z,56.48
2017-09-25T16:01:59.826Z,56.61
2017-09-25T16:04:27.630Z,56.88
2017-09-25T16:06:55.095Z,57.27
2017-09-25T16:09:22.560Z,57.53
2017-09-25T16:11:50.036Z,57.68
2017-09-25T16:14:17.559Z,57.92
2017-09-25T16:16:45.430Z,58.25
2017-09-25T16:19:12.909Z,58.49
2017-09-25T16:21:40.377Z,58.59
2017-09-25T16:24:07.866Z,58.84
2017-09-25T16:26:35.338Z,59.10
2017-09-25T16:29:03.082Z,59.16
2017-09-25T16:31:30.554Z,59.31
2017-09-25T16:33:58.118Z,59.43
2017-09-25T16:36:25.660Z,59.58
2017-09-25T16:38:53.129Z,59.81
2017-09-25T16:41:20.620Z,60.09
2017-09-25T16:43:48.076Z,60.34
2017-09-25T16:46:15.557Z,60.66
2017-09-25T16:48:43.032Z,60.87
2017-09-25T16:51:10.844Z,61.15
2017-09-25T16:53:38.304Z,61.17
2017-09-25T16:56:05.771Z,61.41
2017-09-25T16:58:33.249Z,61.63
2017-09-25T17:01:00.711Z,61.69
2017-09-25T17:03:28.548Z,61.85
2017-09-25T17:05:56.008Z,62.10
2017-09-25T17:08:23.478Z,62.28
2017-09-25T17:10:50.994Z,62.53
2017-09-25T17:13:18.487Z,62.98
2017-09-25T17:15:46.343Z,63.27
2017-09-25T17:18:13.828Z,63.53
2017-09-25T17:20:41.292Z,63.78
2017-09-25T17:23:08.775Z,63.96
2017-09-25T17:25:36.247Z,64.13
2017-09-25T17:28:03.744Z,64.37
2017-09-25T17:30:31.271Z,64.59
2017-09-25T17:32:58.745Z,64.83
2017-09-25T17:35:36.497Z,65.15
2017-09-25T17:38:04.221Z,65.38
2017-09-25T17:40:31.686Z,65.65
2017-09-25T17:42:59.143Z,65.95
2017-09-25T17:45:26.618Z,66.27
2017-09-25T17:47:54.122Z,66.57
2017-09-25T17:50:21.654Z,66.99
2017-09-25T17:52:49.110Z,67.25
2017-09-25T17:55:16.606Z,67.77
2017-09-25T17:57:44.156Z,68.18
2017-09-25T18:00:11.618Z,68.50
2017-09-25T18:02:39.089Z,68.78
2017-09-25T18:05:06.830Z,69.00
2017-09-25T18:07:34.435Z,69.16
2017-09-25T18:10:01.939Z,69.37
2017-09-25T18:12:29.429Z,69.70
2017-09-25T18:14:56.937Z,69.69
2017-09-25T18:17:24.408Z,69.59
2017-09-25T18:19:51.861Z,69.69
2017-09-25T18:22:19.588Z,69.85
2017-09-25T18:24:47.073Z,70.33
2017-09-25T18:27:14.562Z,70.41
2017-09-25T18:29:42.035Z,70.51
2017-09-25T18:32:09.493Z,70.84
2017-09-25T18:34:36.969Z,71.16
2017-09-25T18:37:04.432Z,71.17
2017-09-25T18:39:32.250Z,71.38
2017-09-25T18:41:59.718Z,71.46
2017-09-25T18:44:27.209Z,71.62
2017-09-25T18:46:54.690Z,71.69
2017-09-25T18:49:22.162Z,71.88
2017-09-25T18:51:50.100Z,72.06
2017-09-25T18:54:17.652Z,71.86
2017-09-25T18:56:45.587Z,71.92
2017-09-25T18:59:13.063Z,71.92
2017-09-25T19:01:40.528Z,71.89
2017-09-25T19:04:08.019Z,71.98
2017-09-25T19:06:35.513Z,72.08
2017-09-25T19:09:02.984Z,72.13
2017-09-25T19:11:30.451Z,72.26
2017-09-25T19:13:58.011Z,72.29
2017-09-25T19:16:25.500Z,72.40
2017-09-25T19:18:52.990Z,72.56
2017-09-25T19:21:20.864Z,72.78
2017-09-25T19:23:48.337Z,73.03
2017-09-25T19:26:15.925Z,73.32
2017-09-25T19:28:43.646Z,73.06
2017-09-25T19:31:11.118Z,72.89
2017-09-25T19:33:38.615Z,72.75
2017-09-25T19:36:06.095Z,72.72
2017-09-25T19:38:33.590Z,72.68
2017-09-25T19:41:01.067Z,72.67
2017-09-25T19:43:28.541Z,72.67
2017-09-25T19:45:56.007Z,72.79
2017-09-25T19:48:29.468Z,73.03
2017-09-25T19:51:02.507Z,73.22
2017-09-25T19:53:30.328Z,73.49
2017-09-25T19:55:58.631Z,73.89
2017-09-25T19:58:26.524Z,74.07
2017-09-25T20:00:54.102Z,74.18
2017-09-25T20:03:21.568Z,74.34
2017-09-25T20:05:49.085Z,74.55
2017-09-25T20:08:16.875Z,74.69
2017-09-25T20:10:44.340Z,74.75
2017-09-25T20:13:11.817Z,74.96
2017-09-25T20:15:45.950Z,75.06
2017-09-25T20:18:15.793Z,75.13
2017-09-25T20:20:43.269Z,75.19
2017-09-25T20:23:10.743Z,75.28
2017-09-25T20:25:38.211Z,75.31
2017-09-25T20:28:05.754Z,75.50
2017-09-25T20:30:33.216Z,75.58
2017-09-25T20:33:00.678Z,75.71
2017-09-25T20:35:28.439Z,76.16
2017-09-25T20:37:55.939Z,76.27
2017-09-25T20:43:31.897Z,75.70
2017-09-25T20:45:59.792Z,75.68
2017-09-25T20:48:27.255Z,75.60
2017-09-25T20:50:54.722Z,75.92
2017-09-25T20:53:22.253Z,75.89
2017-09-25T20:55:49.723Z,76.12
2017-09-25T20:58:17.224Z,76.31
2017-09-25T21:00:44.710Z,76.65
2017-09-25T21:03:12.572Z,76.65
2017-09-25T21:05:40.055Z,76.86
2017-09-25T21:08:07.525Z,76.98
2017-09-25T21:10:35.053Z,77.10
2017-09-25T21:13:02.516Z,77.26
2017-09-25T21:15:30.024Z,77.36
2017-09-25T21:17:57.501Z,77.43
2017-09-25T21:20:25.007Z,77.46
2017-09-25T21:22:52.468Z,77.56
2017-09-25T21:25:20.287Z,77.79
2017-09-25T21:27:47.800Z,77.84
2017-09-25T21:30:15.265Z,77.91
2017-09-25T21:32:42.755Z,78.12
2017-09-25T21:35:10.228Z,78.38
2017-09-25T21:37:37.725Z,78.35
2017-09-25T21:40:05.218Z,78.26
2017-09-25T21:42:32.994Z,78.31
2017-09-25T21:45:00.470Z,78.39
2017-09-25T21:47:27.926Z,78.53
2017-09-25T21:49:55.478Z,78.62
2017-09-25T21:52:22.946Z,78.84
2017-09-25T21:54:50.442Z,78.98
2017-09-25T21:57:18.759Z,79.11
2017-09-25T21:59:46.235Z,79.26
2017-09-25T22:02:13.695Z,79.37
2017-09-25T22:04:41.531Z,79.41
2017-09-25T22:07:09.004Z,79.48
2017-09-25T22:09:36.496Z,79.48
2017-09-25T22:12:03.969Z,79.62
2017-09-25T22:14:31.475Z,79.71
2017-09-25T22:16:58.963Z,79.85
2017-09-25T22:19:26.429Z,79.93
2017-09-25T22:21:53.901Z,79.90
2017-09-25T22:24:21.369Z,79.84
2017-09-25T22:26:49.191Z,79.82
2017-09-25T22:29:16.661Z,79.93
2017-09-25T22:31:44.125Z,80.11
2017-09-25T22:34:11.684Z,80.29
2017-09-25T22:36:39.143Z,80.25
2017-09-25T22:39:06.981Z,80.20
2017-09-25T22:41:35.150Z,80.36
2017-09-25T22:44:07.142Z,80.26
2017-09-25T22:46:34.604Z,79.99
2017-09-25T22:49:02.423Z,79.84
2017-09-25T22:51:29.891Z,79.62
2017-09-25T22:53:57.445Z,79.52
2017-09-25T22:56:24.921Z,79.40
2017-09-25T22:58:52.406Z,79.31
2017-09-25T23:01:19.890Z,79.30
2017-09-25T23:03:49.957Z,79.29
2017-09-25T23:06:17.796Z,79.27
2017-09-25T23:08:45.263Z,79.22
2017-09-25T23:11:12.724Z,79.13
2017-09-25T23:13:40.191Z,79.07
2017-09-25T23:16:07.722Z,78.98
2017-09-25T23:18:35.186Z,78.97
2017-09-25T23:21:02.645Z,78.95
2017-09-25T23:23:30.122Z,78.93
2017-09-25T23:25:57.580Z,78.94
2017-09-25T23:28:25.426Z,78.97
2017-09-25T23:30:55.840Z,79.14
2017-09-25T23:33:23.310Z,79.33
2017-09-25T23:35:50.872Z,79.29
2017-09-25T23:38:18.344Z,79.26
2017-09-25T23:40:45.809Z,79.30
2017-09-25T23:43:13.264Z,79.31
2017-09-25T23:45:41.018Z,79.46
2017-09-25T23:48:08.532Z,79.46
2017-09-25T23:50:36.024Z,79.47
2017-09-25T23:53:03.511Z,79.48
2017-09-25T23:55:30.983Z,79.58
2017-09-25T23:57:58.480Z,79.59
